Pagrindinis puslapis
METAR-TAF:

METAR-TAF

Oro uostai :

Calhoun County Airport

Port Lavaca, Teksasas, Jungtinės Amerikos Valstijos

platuma: 28-39-14N, ilguma: 096-40-52W, Aukštis: 9 m

Dabartinis oras

Ataskaita buvo paskelbta 34 minutes, ne 03:15 UTC
Vėjas 5 kt iš Pietų/Pietryčių
Temperatūra 28°C
Drėgmė 84%
Slėgis 1014 hPa
Matomumas: 16.1 km
Išsisklaidę debesys ne aukštis 2100 ft
Išsisklaidę debesys ne aukštis 2800 ft

METAR: KPKV 250315Z AUTO 15005KT 10SM SCT021 SCT028 28/25 A2995 RMK AO2 T02810250

Laikas: 22:49 (03:49 UTC)


TAF: trūkstamas

Orai ataskaitas ir orų prognozės (METAR, TAF).

turimą stotys yra geltonos ir raudonos taškus žemėlapyje.

Perkelti pele per norėdami pamatyti stoties vardą.

Tada spustelėkite, norėdami matyti oro stebėjimo ir prognozės.

Norėdami pakeisti žemėlapį: spustelėkite ant žalios mygtukų su juodo kryžiaus žemyn,; žalią mygtuką su brūkšneliu, jei norite nutolinti; arba žalių rodyklių gretimoms žemėlapius.


METAR-TAF: